createdAt,value
2023-04-15T00:02:20.756Z,5.21
2023-04-15T00:07:25.141Z,5.21
2023-04-15T00:12:29.821Z,5.06
2023-04-15T00:17:35.414Z,4.82
2023-04-15T00:22:39.935Z,4.97
2023-04-15T00:27:43.950Z,4.82
2023-04-15T00:32:49.645Z,4.91
2023-04-15T00:37:58.545Z,5.10
2023-04-15T00:43:03.111Z,4.99
2023-04-15T00:48:09.636Z,5.08
2023-04-15T00:53:13.641Z,5.41
2023-04-15T00:58:18.487Z,5.29
2023-04-15T01:03:24.240Z,5.06
2023-04-15T01:08:30.069Z,4.91
2023-04-15T01:13:37.721Z,5.00
2023-04-15T01:18:43.428Z,4.54
2023-04-15T01:23:49.377Z,4.69
2023-04-15T01:28:54.995Z,4.93
2023-04-15T01:33:59.243Z,4.87
2023-04-15T01:39:22.752Z,4.79
2023-04-15T01:44:28.008Z,4.74
2023-04-15T01:49:34.151Z,4.61
2023-04-15T01:54:40.050Z,4.53
2023-04-15T01:59:47.668Z,4.44
2023-04-15T02:04:53.930Z,4.18
2023-04-15T02:10:00.937Z,4.39
2023-04-15T02:15:09.464Z,4.30
2023-04-15T02:20:14.855Z,4.21
2023-04-15T02:25:20.616Z,4.04
2023-04-15T02:30:27.389Z,3.86
2023-04-15T02:35:32.974Z,3.87
2023-04-15T02:40:38.647Z,3.76
2023-04-15T02:45:48.875Z,3.82
2023-04-15T02:50:54.538Z,4.00
2023-04-15T02:56:00.170Z,4.02
2023-04-15T03:01:07.711Z,4.00
2023-04-15T03:06:13.966Z,3.84
2023-04-15T03:11:19.507Z,3.88
2023-04-15T03:16:28.077Z,3.77
2023-04-15T03:21:33.489Z,4.05
2023-04-15T03:26:38.915Z,4.38
2023-04-15T03:31:52.239Z,4.31
2023-04-15T03:36:58.134Z,4.03
2023-04-15T03:42:04.006Z,4.02
2023-04-15T03:47:11.123Z,4.03
2023-04-15T03:52:16.498Z,4.15
2023-04-15T03:57:22.128Z,4.30
2023-04-15T04:02:29.397Z,4.05
2023-04-15T04:07:34.795Z,4.14
2023-04-15T04:12:40.151Z,4.15
2023-04-15T04:17:46.915Z,4.02
2023-04-15T04:22:52.222Z,4.11
2023-04-15T04:27:57.630Z,4.12
2023-04-15T04:38:36.622Z,4.32
2023-04-15T04:43:43.017Z,4.74
2023-04-15T04:48:50.188Z,4.82
2023-04-15T04:53:56.767Z,4.86
2023-04-15T04:59:02.257Z,4.93
2023-04-15T05:04:09.392Z,4.96
2023-04-15T05:09:17.311Z,5.00
2023-04-15T05:14:23.515Z,5.36
2023-04-15T05:19:31.834Z,5.53
2023-04-15T05:24:37.681Z,5.60
2023-04-15T05:29:43.246Z,5.72
2023-04-15T05:34:50.527Z,5.98
2023-04-15T05:39:57.116Z,6.38
2023-04-15T05:45:05.489Z,6.78
2023-04-15T05:50:12.899Z,6.93
2023-04-15T05:55:18.454Z,6.82
2023-04-15T06:00:24.453Z,6.95
2023-04-15T06:05:34.784Z,6.97
2023-04-15T06:10:40.392Z,7.13
2023-04-15T06:15:47.035Z,7.15
2023-04-15T06:20:55.544Z,7.45
2023-04-15T06:26:01.242Z,7.83
2023-04-15T06:31:08.063Z,8.27
2023-04-15T06:36:15.643Z,8.86
2023-04-15T06:41:21.468Z,9.11
2023-04-15T06:46:29.723Z,9.32
2023-04-15T06:51:38.142Z,9.77
2023-04-15T06:56:43.458Z,10.33
2023-04-15T07:01:49.388Z,10.53
2023-04-15T07:06:56.943Z,10.87
2023-04-15T07:12:04.222Z,11.13
2023-04-15T07:17:11.597Z,11.47
2023-04-15T07:22:19.243Z,11.77
2023-04-15T07:27:24.648Z,11.79
2023-04-15T07:32:30.405Z,11.99
2023-04-15T07:37:37.429Z,12.29
2023-04-15T07:42:43.886Z,12.29
2023-04-15T07:47:49.689Z,12.60
2023-04-15T07:52:57.830Z,12.95
2023-04-15T07:58:03.573Z,13.12
2023-04-15T08:03:09.058Z,13.83
2023-04-15T08:08:16.842Z,14.01
2023-04-15T08:13:22.670Z,13.94
2023-04-15T08:18:27.959Z,14.14
2023-04-15T08:23:35.100Z,14.14
2023-04-15T08:28:42.346Z,14.91
2023-04-15T08:33:50.130Z,15.05
2023-04-15T08:38:57.774Z,15.44
2023-04-15T08:44:06.001Z,15.66
2023-04-15T08:49:13.680Z,15.89
2023-04-15T08:54:21.673Z,16.11
2023-04-15T08:59:27.528Z,16.99
2023-04-15T09:04:33.339Z,17.27
2023-04-15T09:09:43.392Z,18.63
2023-04-15T09:14:49.508Z,18.63
2023-04-15T09:20:10.035Z,18.70
2023-04-15T09:25:34.295Z,19.24
2023-04-15T09:30:46.916Z,19.57
2023-04-15T09:36:01.601Z,19.89
2023-04-15T09:41:19.290Z,20.22
2023-04-15T09:46:43.787Z,19.09
2023-04-15T09:52:04.072Z,19.20
2023-04-15T09:57:12.393Z,20.26
2023-04-15T10:02:20.076Z,20.00
2023-04-15T10:07:26.975Z,20.19
2023-04-15T10:12:34.547Z,20.34
2023-04-15T10:17:43.353Z,20.11
2023-04-15T10:22:49.779Z,20.96
2023-04-15T10:27:58.021Z,20.90
2023-04-15T10:33:07.881Z,20.35
2023-04-15T10:38:40.536Z,19.84
2023-04-15T10:43:55.279Z,19.98
2023-04-15T10:49:08.134Z,19.57
2023-04-15T10:54:16.570Z,19.61
2023-04-15T10:59:24.439Z,19.63
2023-04-15T11:04:57.361Z,19.88
2023-04-15T11:10:04.043Z,19.25
2023-04-15T11:15:33.024Z,19.61
2023-04-15T11:20:39.482Z,19.49
2023-04-15T11:25:45.775Z,18.86
2023-04-15T11:30:54.326Z,18.32
2023-04-15T11:36:00.658Z,18.72
2023-04-15T11:41:06.418Z,18.26
2023-04-15T11:46:13.598Z,18.77
2023-04-15T11:51:21.123Z,18.36
2023-04-15T11:56:26.612Z,18.44
2023-04-15T12:01:39.626Z,18.61
2023-04-15T12:06:43.967Z,19.09
2023-04-15T12:17:18.078Z,18.95
2023-04-15T12:22:25.490Z,18.68
2023-04-15T12:27:29.883Z,19.21
2023-04-15T12:32:38.729Z,19.23
2023-04-15T12:37:44.067Z,19.21
2023-04-15T12:42:48.903Z,18.79
2023-04-15T12:47:54.668Z,18.35
2023-04-15T12:52:59.140Z,18.36
2023-04-15T12:58:03.887Z,18.44
2023-04-15T13:03:09.576Z,18.46
2023-04-15T13:08:13.840Z,18.15
2023-04-15T13:13:18.136Z,17.91
2023-04-15T13:18:24.183Z,17.46
2023-04-15T13:23:29.224Z,17.28
2023-04-15T13:28:33.475Z,17.14
2023-04-15T13:33:39.090Z,17.07
2023-04-15T13:38:43.399Z,17.06
2023-04-15T13:43:47.460Z,17.01
2023-04-15T13:48:52.903Z,17.05
2023-04-15T13:53:58.257Z,17.26
2023-04-15T13:59:03.275Z,17.22
2023-04-15T14:04:11.246Z,17.33
2023-04-15T14:09:16.110Z,17.26
2023-04-15T14:14:20.617Z,17.11
2023-04-15T14:19:26.692Z,17.08
2023-04-15T14:24:32.137Z,17.37
2023-04-15T14:29:37.245Z,17.36
2023-04-15T14:34:43.337Z,17.34
2023-04-15T14:39:48.939Z,17.29
2023-04-15T14:44:53.065Z,17.74
2023-04-15T14:49:59.233Z,17.32
2023-04-15T14:55:04.069Z,17.43
2023-04-15T15:00:10.007Z,17.19
2023-04-15T15:05:18.180Z,17.28
2023-04-15T15:10:44.177Z,17.00
2023-04-15T15:15:50.820Z,16.70
2023-04-15T15:20:59.853Z,16.56
2023-04-15T15:26:04.217Z,16.43
2023-04-15T15:31:10.685Z,16.38
2023-04-15T15:36:19.162Z,16.24
2023-04-15T15:41:23.218Z,16.17
2023-04-15T15:46:28.408Z,15.97
2023-04-15T15:51:34.009Z,15.99
2023-04-15T15:56:39.588Z,15.92
2023-04-15T16:01:44.521Z,15.91
2023-04-15T16:06:50.242Z,15.86
2023-04-15T16:11:55.578Z,15.70
2023-04-15T16:17:00.390Z,15.65
2023-04-15T16:22:06.221Z,15.54
2023-04-15T16:27:16.122Z,15.39
2023-04-15T16:32:20.298Z,15.19
2023-04-15T16:37:25.976Z,15.54
2023-04-15T16:42:30.998Z,15.59
2023-04-15T16:47:35.368Z,15.14
2023-04-15T16:52:40.830Z,14.60
2023-04-15T16:58:00.946Z,14.39
2023-04-15T17:03:07.501Z,14.28
2023-04-15T17:08:14.377Z,14.26
2023-04-15T17:13:18.650Z,14.56
2023-04-15T17:18:23.111Z,14.30
2023-04-15T17:23:41.358Z,14.18
2023-04-15T17:28:46.168Z,13.96
2023-04-15T17:34:02.010Z,13.83
2023-04-15T17:39:15.741Z,13.71
2023-04-15T17:44:41.311Z,13.71
2023-04-15T17:50:05.521Z,13.51
2023-04-15T17:55:31.107Z,13.15
2023-04-15T18:00:55.368Z,12.96
2023-04-15T18:06:22.115Z,12.63
2023-04-15T18:11:48.517Z,12.60
2023-04-15T18:17:15.453Z,12.40
2023-04-15T18:22:39.508Z,11.92
2023-04-15T18:27:45.964Z,12.22
2023-04-15T18:32:50.282Z,12.16
2023-04-15T18:37:54.536Z,12.03
2023-04-15T18:43:02.796Z,11.97
2023-04-15T18:48:08.541Z,11.56
2023-04-15T18:53:13.660Z,11.38
2023-04-15T18:58:19.577Z,11.09
2023-04-15T19:03:24.065Z,10.87
2023-04-15T19:08:29.782Z,10.70
2023-04-15T19:13:35.776Z,10.79
2023-04-15T19:18:39.791Z,10.61
2023-04-15T19:23:44.860Z,10.53
2023-04-15T19:28:53.219Z,10.64
2023-04-15T19:33:58.129Z,10.79
2023-04-15T19:39:02.720Z,10.78
2023-04-15T19:44:09.156Z,10.89
2023-04-15T19:49:15.814Z,10.93
2023-04-15T19:54:20.091Z,10.94
2023-04-15T19:59:27.798Z,11.10
2023-04-15T20:04:32.644Z,11.08
2023-04-15T20:09:37.540Z,11.01
2023-04-15T20:14:45.230Z,11.14
2023-04-15T20:19:49.306Z,10.96
2023-04-15T20:24:53.581Z,10.89
2023-04-15T20:29:59.092Z,11.22
2023-04-15T20:35:03.916Z,11.18
2023-04-15T20:40:09.483Z,11.23
2023-04-15T20:45:16.453Z,11.45
2023-04-15T20:50:21.118Z,11.20
2023-04-15T20:55:25.107Z,11.38
2023-04-15T21:00:33.295Z,11.24
2023-04-15T21:05:37.516Z,10.98
2023-04-15T21:10:41.606Z,10.90
2023-04-15T21:15:50.409Z,11.04
2023-04-15T21:20:58.178Z,11.23
2023-04-15T21:26:02.776Z,11.35
2023-04-15T21:31:08.665Z,11.01
2023-04-15T21:36:12.698Z,10.94
2023-04-15T21:41:16.716Z,10.43
2023-04-15T21:46:32.957Z,10.45
2023-04-15T21:51:39.167Z,10.62
2023-04-15T21:56:43.866Z,10.76
2023-04-15T22:01:49.573Z,10.93
2023-04-15T22:06:58.349Z,10.99
2023-04-15T22:12:02.407Z,11.08
2023-04-15T22:17:09.851Z,10.93
2023-04-15T22:22:13.892Z,11.05
2023-04-15T22:27:18.023Z,11.45
2023-04-15T22:32:24.537Z,10.78
2023-04-15T22:37:30.584Z,10.99
2023-04-15T22:42:35.640Z,10.88
2023-04-15T22:47:41.117Z,10.43
2023-04-15T22:52:46.349Z,10.26
2023-04-15T22:57:50.605Z,10.21
2023-04-15T23:02:56.406Z,10.07
2023-04-15T23:08:00.519Z,10.17
2023-04-15T23:13:04.547Z,9.88
2023-04-15T23:18:10.254Z,9.86
2023-04-15T23:23:15.824Z,10.03
2023-04-15T23:28:19.889Z,9.95
2023-04-15T23:33:26.297Z,9.61
2023-04-15T23:38:30.781Z,9.57
2023-04-15T23:43:34.928Z,9.75
2023-04-15T23:48:40.787Z,9.34
2023-04-15T23:53:45.000Z,9.66
2023-04-15T23:58:49.215Z,9.53
